Time;durP1;ratioP1;P1;durP2;ratioP2;P2;SDS_P1;SDS_P2;PMS_P1;PMS_P2;Temp;Humidity;BMP_temperature;BMP_pressure;BME280_temperature;BME280_humidity;BME280_pressure;Samples;Min_cycle;Max_cycle;Signal;HPM_P1;HPM_P2
2021/03/05 00:02:17;;;;;;;43.70;16.67;;;4.40;99.90;;;;;;5093322;28;20032;-55
2021/03/05 00:04:42;;;;;;;46.17;12.73;;;4.40;99.90;;;;;;5100809;28;20043;-57
2021/03/05 00:07:08;;;;;;;39.15;12.10;;;4.40;99.90;;;;;;5092506;28;20016;-55
2021/03/05 00:09:33;;;;;;;35.63;11.45;;;4.40;99.90;;;;;;5091501;28;20108;-54
2021/03/05 00:11:59;;;;;;;31.08;10.15;;;4.40;99.90;;;;;;5098528;28;20031;-57
2021/03/05 00:14:24;;;;;;;23.33;9.77;;;4.30;99.90;;;;;;5098243;28;20055;-55
2021/03/05 00:16:50;;;;;;;34.05;9.65;;;4.30;99.90;;;;;;5091038;28;20032;-54
2021/03/05 00:19:15;;;;;;;27.75;9.32;;;4.30;99.90;;;;;;5093126;28;20082;-54
2021/03/05 00:21:41;;;;;;;31.63;10.13;;;4.30;99.90;;;;;;5091689;28;20024;-55
2021/03/05 00:24:07;;;;;;;30.30;9.18;;;4.30;99.90;;;;;;5095106;28;20064;-56
2021/03/05 00:26:33;;;;;;;29.20;11.15;;;4.30;99.90;;;;;;5097844;28;20026;-55
2021/03/05 00:28:58;;;;;;;29.75;9.43;;;4.30;99.90;;;;;;5097302;28;20020;-56
2021/03/05 00:31:24;;;;;;;35.85;10.35;;;4.30;99.90;;;;;;5097688;28;20027;-55
2021/03/05 00:33:49;;;;;;;32.15;10.55;;;4.20;99.90;;;;;;5090798;28;20051;-53
2021/03/05 00:36:15;;;;;;;47.13;12.45;;;4.20;99.90;;;;;;5091605;28;20028;-56
2021/03/05 00:38:41;;;;;;;38.78;12.85;;;4.20;99.90;;;;;;5092452;28;20532;-55
2021/03/05 00:41:06;;;;;;;37.55;11.95;;;4.20;99.90;;;;;;5101682;28;20038;-57
2021/03/05 00:43:33;;;;;;;40.53;12.60;;;4.20;99.90;;;;;;5093372;28;20404;-55
2021/03/05 00:45:59;;;;;;;31.75;10.90;;;4.20;99.90;;;;;;5092826;28;20020;-55
2021/03/05 00:48:25;;;;;;;34.72;11.60;;;4.20;99.90;;;;;;5092481;28;20026;-54
2021/03/05 00:50:50;;;;;;;28.40;11.02;;;4.20;99.90;;;;;;5096572;28;20025;-55
2021/03/05 00:53:16;;;;;;;39.22;11.10;;;4.20;99.90;;;;;;5090802;28;20028;-55
2021/03/05 00:55:41;;;;;;;31.95;11.52;;;4.20;99.90;;;;;;5098989;28;20036;-54
2021/03/05 00:58:07;;;;;;;30.10;10.35;;;4.20;99.90;;;;;;5092217;28;20034;-54
2021/03/05 01:00:33;;;;;;;39.53;11.70;;;4.20;99.90;;;;;;5090266;28;20487;-54
2021/03/05 01:02:58;;;;;;;31.77;11.23;;;4.20;99.90;;;;;;5093801;28;20501;-54
2021/03/05 01:05:24;;;;;;;32.40;10.35;;;4.20;99.90;;;;;;5092489;28;20476;-54
2021/03/05 01:07:50;;;;;;;43.28;10.80;;;4.10;99.90;;;;;;5091375;28;20031;-54
2021/03/05 01:10:15;;;;;;;25.33;8.88;;;4.10;99.90;;;;;;5091841;28;20051;-56
2021/03/05 01:12:41;;;;;;;40.35;9.90;;;4.10;99.90;;;;;;5091805;28;20024;-56
2021/03/05 01:15:08;;;;;;;27.17;8.88;;;4.10;99.90;;;;;;5087771;28;20035;-54
2021/03/05 01:17:33;;;;;;;25.77;7.90;;;4.00;99.90;;;;;;5090947;28;20028;-57
2021/03/05 01:19:59;;;;;;;26.75;8.30;;;4.00;99.90;;;;;;5095571;28;20032;-55
2021/03/05 01:22:25;;;;;;;30.27;9.85;;;3.90;99.90;;;;;;5091951;28;20028;-57
2021/03/05 01:24:51;;;;;;;26.40;7.38;;;3.90;99.90;;;;;;5097792;28;20111;-55
2021/03/05 01:27:16;;;;;;;37.72;9.57;;;3.90;99.90;;;;;;5091545;28;20028;-54
2021/03/05 01:29:42;;;;;;;27.65;7.80;;;3.80;99.90;;;;;;5101978;28;20036;-55
2021/03/05 01:32:08;;;;;;;36.97;9.35;;;3.80;99.90;;;;;;5090865;28;20446;-54
2021/03/05 01:34:33;;;;;;;27.98;6.95;;;3.80;99.90;;;;;;5094761;28;20036;-56
2021/03/05 01:36:59;;;;;;;30.52;8.00;;;3.80;99.90;;;;;;5093573;28;20369;-55
2021/03/05 01:39:24;;;;;;;35.58;7.13;;;3.80;99.90;;;;;;5099295;28;20055;-54
2021/03/05 01:41:50;;;;;;;27.55;7.97;;;3.80;99.90;;;;;;5098416;22;20041;-85
2021/03/05 01:44:16;;;;;;;28.05;7.35;;;3.70;99.90;;;;;;5062374;28;20020;-83
2021/03/05 01:46:41;;;;;;;30.98;7.97;;;3.80;99.90;;;;;;5069718;28;20083;-84
2021/03/05 01:49:08;;;;;;;30.85;8.52;;;3.80;99.90;;;;;;5089617;28;20024;-85
2021/03/05 01:51:35;;;;;;;30.98;7.10;;;3.80;99.90;;;;;;5061987;28;20021;-85
2021/03/05 01:54:01;;;;;;;28.88;7.13;;;3.80;99.90;;;;;;5061868;28;20044;-83
2021/03/05 01:56:32;;;;;;;27.30;7.10;;;3.70;99.90;;;;;;5061033;28;20024;-85
2021/03/05 01:58:58;;;;;;;20.90;6.50;;;3.80;99.90;;;;;;5081300;28;20020;-85
2021/03/05 02:01:25;;;;;;;21.45;6.45;;;3.80;99.90;;;;;;5073764;28;20027;-82
2021/03/05 02:03:52;;;;;;;23.85;6.30;;;3.80;99.90;;;;;;5065404;28;20040;-83
2021/03/05 02:06:18;;;;;;;30.58;6.43;;;3.80;99.90;;;;;;5047953;28;20054;-84
2021/03/05 02:08:44;;;;;;;25.98;5.97;;;3.80;99.90;;;;;;5069618;28;20025;-82
2021/03/05 02:11:09;;;;;;;36.85;6.10;;;3.70;99.90;;;;;;5080899;28;20035;-83
2021/03/05 02:13:35;;;;;;;37.65;6.85;;;3.70;99.90;;;;;;5075572;28;20013;-83
2021/03/05 02:16:13;;;;;;;23.33;6.82;;;3.70;99.90;;;;;;5086549;28;20039;-85
2021/03/05 02:18:48;;;;;;;35.13;6.72;;;3.70;99.90;;;;;;5061711;28;20032;-86
2021/03/05 02:21:23;;;;;;;25.23;6.32;;;3.70;99.90;;;;;;5057970;28;20108;-84
2021/03/05 02:24:08;;;;;;;26.25;5.80;;;3.70;99.90;;;;;;5053903;28;20031;-83
2021/03/05 02:27:12;;;;;;;24.17;6.43;;;3.70;99.90;;;;;;5062658;28;20038;-86
2021/03/05 02:29:56;;;;;;;33.22;6.88;;;3.70;99.90;;;;;;5078375;28;20035;-83
2021/03/05 02:32:33;;;;;;;24.52;6.53;;;3.70;99.90;;;;;;5071165;28;20021;-86
2021/03/05 02:35:00;;;;;;;27.35;6.57;;;3.70;99.90;;;;;;5091949;28;20040;-85
2021/03/05 02:37:31;;;;;;;23.83;5.80;;;3.70;99.90;;;;;;5085877;28;20389;-84
2021/03/05 02:40:08;;;;;;;30.63;6.63;;;3.70;99.90;;;;;;5062541;28;20051;-84
2021/03/05 02:42:47;;;;;;;25.90;6.38;;;3.70;99.90;;;;;;5063045;28;20092;-84
2021/03/05 02:45:35;;;;;;;32.28;7.93;;;3.70;99.90;;;;;;5058403;28;20435;-84
2021/03/05 02:48:18;;;;;;;34.63;7.80;;;3.70;99.90;;;;;;5065297;28;20012;-83
2021/03/05 02:50:49;;;;;;;38.47;8.65;;;3.70;99.90;;;;;;5079174;28;20036;-85
2021/03/05 02:53:18;;;;;;;38.72;8.35;;;3.70;99.90;;;;;;5041111;28;20554;-86
2021/03/05 02:55:48;;;;;;;32.22;8.77;;;3.70;99.90;;;;;;5045972;28;20033;-83
2021/03/05 02:58:14;;;;;;;51.88;11.30;;;3.70;99.90;;;;;;5062158;28;20029;-85
2021/03/05 03:00:42;;;;;;;44.83;13.82;;;3.60;99.90;;;;;;5064743;28;20056;-85
2021/03/05 03:03:09;;;;;;;46.45;14.82;;;3.60;99.90;;;;;;5065398;28;20028;-86
2021/03/05 03:05:36;;;;;;;36.85;11.80;;;3.50;99.90;;;;;;5064803;28;20178;-84
2021/03/05 03:08:02;;;;;;;48.28;12.75;;;3.50;99.90;;;;;;5077384;28;20017;-85
2021/03/05 03:10:28;;;;;;;52.83;14.05;;;3.40;99.90;;;;;;5082529;28;20046;-82
2021/03/05 03:12:56;;;;;;;44.97;12.85;;;3.40;99.90;;;;;;5074086;28;20039;-86
2021/03/05 03:15:24;;;;;;;45.47;11.52;;;3.50;99.90;;;;;;5064301;28;20036;-85
2021/03/05 03:17:52;;;;;;;37.35;11.35;;;3.40;99.90;;;;;;5070572;28;20064;-85
2021/03/05 03:20:21;;;;;;;42.22;11.88;;;3.40;99.90;;;;;;5071868;28;20047;-84
2021/03/05 03:22:47;;;;;;;37.38;11.38;;;3.40;99.90;;;;;;5064046;28;20029;-86
2021/03/05 03:25:14;;;;;;;40.25;12.02;;;3.40;99.90;;;;;;5068309;28;20030;-84
2021/03/05 03:27:40;;;;;;;41.97;11.68;;;3.40;99.90;;;;;;5084245;28;20092;-82
2021/03/05 03:30:12;;;;;;;45.03;11.80;;;3.40;99.90;;;;;;5083028;28;20048;-85
2021/03/05 03:32:38;;;;;;;40.20;11.43;;;3.40;99.90;;;;;;5102468;28;20012;-85
2021/03/05 03:35:10;;;;;;;41.95;12.60;;;3.50;99.90;;;;;;5083863;28;20024;-85
2021/03/05 03:37:36;;;;;;;50.38;13.35;;;3.50;99.90;;;;;;5080361;28;20024;-84
2021/03/05 03:40:22;;;;;;;35.70;12.35;;;3.50;99.90;;;;;;5063555;28;20024;-83
2021/03/05 03:42:49;;;;;;;53.38;12.90;;;3.50;99.90;;;;;;5063386;28;20044;-84
2021/03/05 03:45:19;;;;;;;56.13;15.50;;;3.60;99.90;;;;;;5065482;28;20031;-84
2021/03/05 03:47:45;;;;;;;53.92;16.25;;;3.50;99.90;;;;;;5098773;28;20028;-83
2021/03/05 03:50:35;;;;;;;46.55;14.73;;;3.60;99.90;;;;;;5086687;28;20111;-85
2021/03/05 03:53:08;;;;;;;49.67;15.52;;;3.60;99.90;;;;;;5087711;28;20044;-83
2021/03/05 03:55:34;;;;;;;59.75;16.88;;;3.60;99.90;;;;;;5083250;28;20301;-84
2021/03/05 03:58:01;;;;;;;54.15;19.65;;;3.70;99.90;;;;;;5082745;28;20056;-83
2021/03/05 04:00:27;;;;;;;53.42;18.52;;;3.70;99.90;;;;;;5082775;28;20017;-83
2021/03/05 04:02:55;;;;;;;58.60;20.92;;;3.70;99.90;;;;;;5063940;28;20054;-85
2021/03/05 04:05:25;;;;;;;59.50;21.73;;;3.70;99.90;;;;;;5095421;28;20031;-86
2021/03/05 04:07:54;;;;;;;65.30;22.02;;;3.70;99.90;;;;;;5095036;28;20013;-84
2021/03/05 04:10:20;;;;;;;62.50;22.77;;;3.70;99.90;;;;;;5076972;28;20481;-82
2021/03/05 04:12:47;;;;;;;65.53;24.50;;;3.70;99.90;;;;;;5062378;28;20052;-85
2021/03/05 04:15:13;;;;;;;63.05;24.42;;;3.70;99.90;;;;;;5068203;28;20020;-86
2021/03/05 04:17:39;;;;;;;57.90;22.73;;;3.80;99.90;;;;;;5082686;28;20032;-84
2021/03/05 04:20:07;;;;;;;61.95;24.83;;;3.80;99.90;;;;;;5083242;28;20024;-86
2021/03/05 04:22:33;;;;;;;59.13;22.45;;;3.90;99.90;;;;;;5082517;28;20081;-84
2021/03/05 04:24:59;;;;;;;56.40;25.88;;;3.90;99.90;;;;;;5100086;28;20051;-83
2021/03/05 04:27:25;;;;;;;56.13;25.00;;;3.90;99.90;;;;;;5083681;28;20080;-85
2021/03/05 04:29:51;;;;;;;59.22;24.58;;;4.00;99.90;;;;;;5094352;28;20020;-82
2021/03/05 04:32:16;;;;;;;62.40;24.77;;;4.00;99.90;;;;;;5064098;28;20028;-85
2021/03/05 04:34:42;;;;;;;56.92;24.35;;;4.00;99.90;;;;;;5081720;28;20025;-83
2021/03/05 04:37:08;;;;;;;55.63;24.42;;;4.00;99.90;;;;;;5080875;28;20039;-85
2021/03/05 04:39:33;;;;;;;53.13;24.92;;;4.10;99.90;;;;;;5081147;28;20029;-82
2021/03/05 04:41:59;;;;;;;55.97;24.63;;;4.10;99.90;;;;;;5080821;28;20033;-83
2021/03/05 04:44:24;;;;;;;52.17;23.30;;;4.00;99.90;;;;;;5062686;28;20029;-83
2021/03/05 04:46:50;;;;;;;61.20;24.40;;;4.00;99.90;;;;;;5061740;28;20421;-84
2021/03/05 04:49:16;;;;;;;59.25;24.20;;;4.00;99.90;;;;;;5062330;28;20025;-84
2021/03/05 04:51:41;;;;;;;53.40;23.67;;;4.00;99.90;;;;;;5063237;28;20058;-85
2021/03/05 04:54:07;;;;;;;51.97;25.88;;;4.00;99.90;;;;;;5092295;28;20070;-85
2021/03/05 04:56:35;;;;;;;53.38;23.60;;;3.90;99.90;;;;;;5053276;28;20035;-82
2021/03/05 04:59:01;;;;;;;45.90;22.35;;;3.90;99.90;;;;;;5043602;28;20021;-83
2021/03/05 05:01:26;;;;;;;53.75;25.13;;;3.90;99.90;;;;;;5061622;28;20040;-83
2021/03/05 05:03:52;;;;;;;49.88;22.45;;;3.90;99.90;;;;;;5043189;28;20028;-85
2021/03/05 05:06:17;;;;;;;52.50;23.52;;;3.90;99.90;;;;;;5055571;28;20428;-85
2021/03/05 05:08:43;;;;;;;48.38;23.80;;;3.90;99.90;;;;;;5062689;28;20104;-84
2021/03/05 05:11:08;;;;;;;51.35;22.65;;;3.90;99.90;;;;;;5062615;28;20020;-85
2021/03/05 05:13:34;;;;;;;45.50;21.45;;;3.90;99.90;;;;;;5062905;28;20036;-83
2021/03/05 05:15:59;;;;;;;41.33;20.25;;;3.90;99.90;;;;;;5064033;28;20047;-81
2021/03/05 05:18:25;;;;;;;42.47;22.00;;;3.90;99.90;;;;;;5080566;28;20327;-85
2021/03/05 05:20:51;;;;;;;40.70;20.70;;;3.90;99.90;;;;;;5061941;28;20031;-85
2021/03/05 05:23:16;;;;;;;42.53;20.90;;;3.80;99.90;;;;;;5080323;28;20396;-82
2021/03/05 05:25:42;;;;;;;45.03;21.45;;;3.80;99.90;;;;;;5078486;28;20036;-85
2021/03/05 05:28:07;;;;;;;43.00;20.60;;;3.80;99.90;;;;;;5081881;28;20023;-85
2021/03/05 05:30:33;;;;;;;43.63;22.58;;;3.80;99.90;;;;;;5073982;28;20031;-84
2021/03/05 05:32:59;;;;;;;41.40;19.67;;;3.70;99.90;;;;;;5082450;28;20503;-81
2021/03/05 05:35:24;;;;;;;39.58;20.00;;;3.70;99.90;;;;;;5083277;28;20024;-86
2021/03/05 05:37:50;;;;;;;36.13;19.60;;;3.70;99.90;;;;;;5070531;28;20393;-85
2021/03/05 05:40:16;;;;;;;33.30;17.30;;;3.80;99.90;;;;;;5081228;28;20055;-83
2021/03/05 05:42:42;;;;;;;38.97;19.67;;;3.80;99.90;;;;;;5062779;28;20032;-81
2021/03/05 05:45:08;;;;;;;35.45;17.55;;;3.80;99.90;;;;;;5062668;28;20723;-83
2021/03/05 05:47:37;;;;;;;33.38;16.90;;;3.90;99.90;;;;;;5062899;28;20048;-84
2021/03/05 05:50:06;;;;;;;32.80;16.80;;;3.90;99.90;;;;;;5062345;28;20024;-82
2021/03/05 05:52:33;;;;;;;31.67;17.85;;;3.90;99.90;;;;;;5068948;28;20045;-83
2021/03/05 05:55:03;;;;;;;28.08;14.43;;;4.00;99.90;;;;;;5084677;28;20032;-83
2021/03/05 05:57:30;;;;;;;30.95;16.10;;;4.00;99.90;;;;;;5060943;28;20033;-82
2021/03/05 06:00:00;;;;;;;31.30;16.30;;;4.10;99.90;;;;;;5061530;28;20021;-85
2021/03/05 06:02:28;;;;;;;30.10;15.50;;;4.10;99.90;;;;;;5068730;28;20024;-85
2021/03/05 06:04:57;;;;;;;33.75;17.10;;;4.10;99.90;;;;;;5079898;28;20031;-85
2021/03/05 06:07:23;;;;;;;43.65;18.67;;;4.00;99.90;;;;;;5062111;28;20095;-85
2021/03/05 06:09:53;;;;;;;39.30;18.00;;;4.00;99.90;;;;;;5064009;28;20139;-86
2021/03/05 06:12:19;;;;;;;34.83;18.48;;;4.00;99.90;;;;;;5081991;28;20130;-86
2021/03/05 06:14:46;;;;;;;37.30;19.08;;;4.00;99.90;;;;;;5084191;28;20044;-86
2021/03/05 06:17:12;;;;;;;41.22;19.77;;;4.00;99.90;;;;;;5063720;28;20033;-83
2021/03/05 06:19:38;;;;;;;40.80;19.83;;;4.00;99.90;;;;;;5060127;28;20078;-86
2021/03/05 06:22:21;;;;;;;40.08;20.48;;;4.00;99.90;;;;;;5063479;28;20374;-86
2021/03/05 06:24:47;;;;;;;44.95;21.25;;;4.00;99.90;;;;;;5059867;28;20035;-85
2021/03/05 06:27:13;;;;;;;39.35;20.77;;;4.00;99.90;;;;;;5046078;28;20028;-84
2021/03/05 06:29:46;;;;;;;42.35;19.40;;;4.00;99.90;;;;;;5067447;28;20029;-84
2021/03/05 06:32:14;;;;;;;34.42;18.75;;;4.00;99.90;;;;;;5087020;28;20024;-84
2021/03/05 06:34:54;;;;;;;34.17;18.95;;;4.00;99.90;;;;;;5068362;28;20489;-84
2021/03/05 06:37:21;;;;;;;38.13;19.70;;;4.00;99.90;;;;;;5059829;28;20024;-84
2021/03/05 06:40:06;;;;;;;38.53;18.55;;;3.90;99.90;;;;;;5062144;28;20214;-85
2021/03/05 06:42:51;;;;;;;35.13;19.08;;;3.90;99.90;;;;;;5053484;28;20028;-85
2021/03/05 06:45:19;;;;;;;37.42;19.90;;;4.00;99.90;;;;;;5059900;28;20045;-84
2021/03/05 06:48:08;;;;;;;33.08;18.75;;;3.90;99.90;;;;;;5078393;28;20029;-85
2021/03/05 06:50:35;;;;;;;42.22;19.92;;;4.00;99.90;;;;;;5066974;28;20066;-84
2021/03/05 06:53:18;;;;;;;33.97;17.98;;;4.00;99.90;;;;;;5081055;28;20035;-83
2021/03/05 06:55:44;;;;;;;31.10;16.38;;;4.00;99.90;;;;;;5054930;28;20033;-84
2021/03/05 06:58:09;;;;;;;34.60;16.55;;;4.00;99.90;;;;;;5066488;28;20051;-81
2021/03/05 07:00:38;;;;;;;30.02;16.20;;;4.00;99.90;;;;;;5083389;28;20389;-83
2021/03/05 07:03:23;;;;;;;29.88;16.02;;;4.00;99.90;;;;;;5060412;28;20032;-84
2021/03/05 07:05:53;;;;;;;31.98;15.43;;;4.00;99.90;;;;;;5057973;28;20044;-84
2021/03/05 07:08:39;;;;;;;30.60;15.85;;;3.90;99.90;;;;;;5071330;28;20021;-85
2021/03/05 07:11:08;;;;;;;31.48;14.18;;;3.90;99.90;;;;;;5056670;28;20032;-83
2021/03/05 07:13:50;;;;;;;27.77;15.32;;;3.90;99.90;;;;;;5051011;28;20028;-83
2021/03/05 07:16:17;;;;;;;29.10;13.88;;;3.80;99.90;;;;;;5062345;28;20024;-86
2021/03/05 07:18:42;;;;;;;28.13;14.52;;;3.80;99.90;;;;;;5063042;28;20106;-83
2021/03/05 07:21:10;;;;;;;32.60;14.07;;;3.70;99.90;;;;;;5085484;28;20028;-84
2021/03/05 07:23:37;;;;;;;28.15;14.25;;;3.70;99.90;;;;;;5055347;28;20021;-83
2021/03/05 07:26:06;;;;;;;27.55;14.10;;;3.60;99.90;;;;;;5082272;28;20051;-83
2021/03/05 07:28:43;;;;;;;27.58;15.40;;;3.70;99.90;;;;;;5061922;28;20021;-83
2021/03/05 07:31:10;;;;;;;38.22;15.43;;;3.70;99.90;;;;;;5060747;28;20063;-85
2021/03/05 07:33:39;;;;;;;27.77;14.60;;;3.70;99.90;;;;;;5082605;28;20021;-84
2021/03/05 07:36:09;;;;;;;25.38;12.55;;;3.70;99.90;;;;;;5062987;28;20028;-83
2021/03/05 07:38:39;;;;;;;29.75;14.20;;;3.60;99.90;;;;;;5060623;28;20028;-82
2021/03/05 07:41:09;;;;;;;24.83;12.82;;;3.60;99.90;;;;;;5083481;28;20297;-83
2021/03/05 07:43:34;;;;;;;20.58;10.65;;;3.60;99.90;;;;;;5071351;28;20047;-82
2021/03/05 07:46:01;;;;;;;23.85;10.50;;;3.50;99.90;;;;;;5094891;28;20024;-81
2021/03/05 07:48:27;;;;;;;20.48;10.40;;;3.50;99.90;;;;;;5062697;28;20395;-85
2021/03/05 07:50:57;;;;;;;20.95;11.07;;;3.50;99.90;;;;;;5085178;28;20028;-81
2021/03/05 07:53:23;;;;;;;22.05;10.60;;;3.50;99.90;;;;;;5083452;28;20055;-85
2021/03/05 07:55:48;;;;;;;21.15;9.50;;;3.50;99.90;;;;;;5060438;28;20028;-83
2021/03/05 07:58:43;;;;;;;21.35;11.13;;;3.50;99.90;;;;;;5092981;28;20032;-82
2021/03/05 08:01:09;;;;;;;;;;;3.60;99.90;;;;;;5063597;28;20070;-81
2021/03/05 08:03:54;;;;;;;19.25;9.73;;;3.60;99.90;;;;;;5060714;28;19908;-83
2021/03/05 08:06:30;;;;;;;19.45;10.45;;;3.70;99.90;;;;;;5064657;28;20363;-84
2021/03/05 08:09:10;;;;;;;20.73;10.10;;;3.80;99.90;;;;;;5054863;28;20025;-84
2021/03/05 08:11:39;;;;;;;21.50;9.40;;;3.90;99.90;;;;;;5079000;28;20020;-80
2021/03/05 08:14:34;;;;;;;15.95;8.68;;;3.90;99.90;;;;;;5070843;28;20047;-82
2021/03/05 08:17:00;;;;;;;;;;;3.90;99.90;;;;;;5087881;28;20492;-82
2021/03/05 08:19:26;;;;;;;17.52;7.63;;;3.90;99.90;;;;;;5082672;28;19904;-83
2021/03/05 08:21:58;;;;;;;14.48;8.40;;;3.90;99.90;;;;;;5076301;28;20025;-82
2021/03/05 08:24:27;;;;;;;17.48;7.40;;;3.90;99.90;;;;;;5073802;28;20084;-82
2021/03/05 08:27:01;;;;;;;17.25;9.02;;;3.90;99.90;;;;;;5082584;28;20123;-84
2021/03/05 08:29:56;;;;;;;14.45;7.95;;;3.90;99.90;;;;;;5083716;28;20088;-83
2021/03/05 08:32:33;;;;;;;16.48;8.57;;;3.90;99.90;;;;;;5084387;28;20052;-83
2021/03/05 08:35:02;;;;;;;21.15;8.95;;;3.90;99.90;;;;;;5048140;28;20498;-84
2021/03/05 08:37:29;;;;;;;20.50;9.25;;;3.90;99.90;;;;;;5055366;28;20035;-83
2021/03/05 08:40:13;;;;;;;19.95;8.70;;;3.90;99.90;;;;;;5050146;28;20025;-84
2021/03/05 08:42:46;;;;;;;19.27;8.45;;;4.00;99.90;;;;;;5065292;28;20040;-80
2021/03/05 08:45:11;;;;;;;14.63;7.47;;;4.00;99.90;;;;;;5065141;28;20029;-82
2021/03/05 08:47:39;;;;;;;13.90;8.55;;;4.00;99.90;;;;;;5084425;28;20055;-82
2021/03/05 08:50:06;;;;;;;16.20;9.80;;;4.10;99.90;;;;;;5083547;28;20026;-83
2021/03/05 08:52:32;;;;;;;17.73;9.13;;;4.20;99.90;;;;;;5080439;28;20028;-85
2021/03/05 08:54:58;;;;;;;15.48;8.23;;;4.20;99.90;;;;;;5064012;28;20029;-82
2021/03/05 08:57:24;;;;;;;14.88;8.98;;;4.20;99.90;;;;;;5100690;28;20354;-82
2021/03/05 08:59:51;;;;;;;17.60;8.48;;;4.20;99.90;;;;;;5100604;28;20115;-81
2021/03/05 09:02:17;;;;;;;14.88;8.38;;;4.30;99.90;;;;;;5068425;28;20063;-82
2021/03/05 09:04:43;;;;;;;18.10;9.02;;;4.30;99.90;;;;;;5079416;28;20027;-84
2021/03/05 09:07:13;;;;;;;17.67;8.13;;;4.30;99.90;;;;;;5097355;28;20036;-83
2021/03/05 09:09:39;;;;;;;14.27;7.60;;;4.30;99.90;;;;;;5071355;28;20038;-82
2021/03/05 09:12:07;;;;;;;14.40;8.27;;;4.50;99.90;;;;;;5049553;28;20024;-84
2021/03/05 09:14:33;;;;;;;13.88;7.03;;;4.60;99.90;;;;;;5087464;28;20089;-82
2021/03/05 09:17:05;;;;;;;13.70;7.30;;;4.60;99.90;;;;;;5078981;28;20032;-83
2021/03/05 09:19:39;;;;;;;11.88;7.07;;;4.70;99.90;;;;;;5086136;28;20020;-83
2021/03/05 09:22:22;;;;;;;13.55;7.15;;;4.80;99.90;;;;;;5062611;28;20020;-85
2021/03/05 09:24:55;;;;;;;16.50;7.30;;;4.80;99.90;;;;;;5074034;28;20093;-84
2021/03/05 09:27:32;;;;;;;12.10;6.88;;;4.80;99.90;;;;;;5053108;28;20539;-82
2021/03/05 09:29:58;;;;;;;13.50;6.78;;;4.80;99.90;;;;;;5062610;28;20016;-82
2021/03/05 09:32:25;;;;;;;14.27;6.88;;;4.90;99.90;;;;;;5062188;28;20016;-81
2021/03/05 09:34:58;;;;;;;14.10;6.80;;;5.00;99.90;;;;;;5080540;28;20034;-83
2021/03/05 09:37:26;;;;;;;13.35;5.95;;;5.20;99.90;;;;;;5087701;28;20095;-82
2021/03/05 09:39:54;;;;;;;15.85;5.85;;;5.30;99.90;;;;;;5063731;28;20028;-81
2021/03/05 09:42:42;;;;;;;11.45;5.70;;;5.30;99.90;;;;;;5071467;28;20032;-82
2021/03/05 09:45:08;;;;;;;9.13;5.93;;;5.40;99.90;;;;;;5060719;28;20025;-82
2021/03/05 09:47:48;;;;;;;11.60;5.78;;;5.40;99.90;;;;;;5061581;28;20028;-81
2021/03/05 09:50:22;;;;;;;10.07;5.72;;;5.20;99.90;;;;;;5053284;28;20111;-83
2021/03/05 09:52:48;;;;;;;12.65;6.20;;;5.20;99.90;;;;;;5056380;28;20024;-81
2021/03/05 09:55:30;;;;;;;9.80;5.43;;;5.10;99.90;;;;;;5065947;28;20036;-82
2021/03/05 09:58:11;;;;;;;11.45;5.47;;;5.30;99.90;;;;;;5066732;28;20025;-82
2021/03/05 10:00:38;;;;;;;10.50;5.50;;;5.40;99.90;;;;;;5064863;28;20035;-82
2021/03/05 10:03:13;;;;;;;11.57;5.45;;;5.50;99.90;;;;;;5080061;28;20037;-81
2021/03/05 10:05:41;;;;;;;11.50;4.57;;;5.50;99.90;;;;;;5070183;28;20050;-83
2021/03/05 10:08:14;;;;;;;9.18;5.45;;;5.60;99.90;;;;;;5099623;28;20475;-82
2021/03/05 10:10:57;;;;;;;10.30;5.25;;;5.70;99.90;;;;;;5073839;28;20107;-82
2021/03/05 10:13:56;;;;;;;11.65;5.47;;;5.80;99.90;;;;;;5086533;28;20024;-81
2021/03/05 10:16:31;;;;;;;9.20;5.20;;;5.90;99.90;;;;;;5062698;28;20508;-84
2021/03/05 10:19:23;;;;;;;8.70;5.15;;;5.90;99.90;;;;;;5082237;28;20024;-81
2021/03/05 10:21:54;;;;;;;11.48;5.25;;;5.90;99.90;;;;;;5058875;28;20098;-84
2021/03/05 10:24:29;;;;;;;9.43;5.15;;;6.00;99.90;;;;;;5072950;28;20044;-79
2021/03/05 10:27:10;;;;;;;10.60;5.13;;;6.20;99.90;;;;;;5074719;28;20351;-84
2021/03/05 10:29:40;;;;;;;8.07;4.75;;;6.30;99.90;;;;;;5069592;28;20019;-82
2021/03/05 10:32:37;;;;;;;11.10;5.28;;;6.20;99.90;;;;;;5071130;28;20081;-84
2021/03/05 10:35:12;;;;;;;11.65;5.00;;;6.20;99.90;;;;;;5074932;28;20093;-84
2021/03/05 10:37:39;;;;;;;11.77;5.28;;;6.20;99.90;;;;;;5101759;28;20024;-84
2021/03/05 10:40:08;;;;;;;10.40;6.03;;;6.10;99.90;;;;;;5082210;28;20052;-85
2021/03/05 10:42:35;;;;;;;12.63;6.53;;;6.10;99.90;;;;;;5064310;28;20059;-83
2021/03/05 10:45:06;;;;;;;8.93;5.40;;;6.00;99.90;;;;;;5079048;28;20024;-84
2021/03/05 10:47:33;;;;;;;10.35;5.45;;;6.00;99.90;;;;;;5061100;28;20476;-84
2021/03/05 10:49:59;;;;;;;9.20;4.32;;;6.30;99.90;;;;;;5061106;28;20120;-86
2021/03/05 10:52:26;;;;;;;8.93;4.35;;;6.40;99.90;;;;;;5062241;28;20484;-84
2021/03/05 10:54:52;;;;;;;10.63;4.88;;;6.40;99.90;;;;;;5061543;28;20040;-84
2021/03/05 10:57:20;;;;;;;9.57;5.18;;;6.50;99.90;;;;;;5058305;28;20289;-85
2021/03/05 10:59:49;;;;;;;6.88;4.18;;;6.50;99.90;;;;;;5060242;28;20085;-84
2021/03/05 11:02:16;;;;;;;11.32;4.70;;;6.60;99.90;;;;;;5076134;28;20020;-84
2021/03/05 11:04:42;;;;;;;5.45;3.30;;;6.70;99.90;;;;;;5061428;28;20029;-84
2021/03/05 11:07:08;;;;;;;6.72;4.32;;;6.80;99.90;;;;;;5078876;28;20024;-85
2021/03/05 11:09:34;;;;;;;8.95;4.03;;;6.90;99.90;;;;;;5061211;28;20021;-84
2021/03/05 11:12:00;;;;;;;6.00;3.97;;;7.00;99.90;;;;;;5081518;28;20170;-84
2021/03/05 11:14:31;;;;;;;8.50;4.15;;;7.10;99.90;;;;;;5098305;28;20020;-84
2021/03/05 11:17:08;;;;;;;7.90;4.18;;;7.10;99.90;;;;;;5077609;28;20466;-87
2021/03/05 11:20:04;;;;;;;6.25;4.38;;;7.20;99.90;;;;;;5062747;28;20021;-83
2021/03/05 11:23:02;;;;;;;9.48;5.00;;;7.30;99.90;;;;;;5062471;28;20025;-85
2021/03/05 11:30:16;;;;;;;;;;;;;;;;;;;;;
2021/03/05 11:32:56;;;;;;;8.27;4.20;;;7.60;99.90;;;;;;5071344;28;20156;-83
2021/03/05 11:35:33;;;;;;;7.97;4.70;;;7.10;99.90;;;;;;5089023;28;20024;-83
2021/03/05 11:38:24;;;;;;;8.63;4.95;;;7.00;99.90;;;;;;5095622;28;20111;-82
2021/03/05 11:40:59;;;;;;;12.35;4.90;;;7.30;99.90;;;;;;5068207;28;20497;-86
2021/03/05 11:43:47;;;;;;;;;;;;;;;;;;;;;
2021/03/05 11:46:14;;;;;;;10.32;4.40;;;7.40;99.90;;;;;;5114454;22;19933;-58
2021/03/05 11:48:40;;;;;;;9.85;5.32;;;7.30;99.90;;;;;;5114397;27;20020;-56
2021/03/05 11:51:06;;;;;;;12.32;5.32;;;7.10;99.90;;;;;;5095371;28;20031;-58
2021/03/05 11:53:31;;;;;;;7.05;4.18;;;6.60;99.90;;;;;;5087310;28;21219;-57
2021/03/05 11:55:57;;;;;;;8.35;4.93;;;6.30;99.90;;;;;;5090107;28;20580;-59
2021/03/05 11:58:23;;;;;;;8.00;4.88;;;6.30;99.90;;;;;;5097867;28;20028;-57
2021/03/05 12:00:50;;;;;;;10.07;4.80;;;6.40;99.90;;;;;;5126881;22;20064;-84
2021/03/05 12:03:16;;;;;;;12.55;4.55;;;6.60;99.90;;;;;;5045487;28;20031;-85
2021/03/05 12:05:42;;;;;;;8.90;5.00;;;6.80;99.90;;;;;;5093342;22;20035;-63
2021/03/05 12:08:07;;;;;;;9.48;4.78;;;7.10;99.90;;;;;;5091600;28;20028;-64
2021/03/05 12:10:33;;;;;;;10.60;5.10;;;7.40;99.90;;;;;;5081297;28;20404;-62
2021/03/05 12:12:59;;;;;;;7.40;4.05;;;7.70;99.90;;;;;;5072944;28;20376;-62
2021/03/05 12:15:24;;;;;;;12.15;4.93;;;7.80;99.90;;;;;;5073617;28;20043;-63
2021/03/05 12:17:50;;;;;;;8.13;4.15;;;7.80;99.90;;;;;;5073692;28;20105;-62
2021/03/05 12:20:16;;;;;;;7.57;4.35;;;7.90;99.90;;;;;;5073969;28;20048;-62
2021/03/05 12:22:41;;;;;;;11.02;5.13;;;8.00;99.90;;;;;;5072681;28;20036;-61
2021/03/05 12:25:08;;;;;;;5.40;3.42;;;8.40;99.90;;;;;;5071742;28;20039;-61
2021/03/05 12:27:34;;;;;;;7.10;4.10;;;8.40;99.90;;;;;;5074496;28;20385;-61
2021/03/05 12:30:00;;;;;;;9.27;4.00;;;8.60;99.90;;;;;;5072555;28;20050;-62
2021/03/05 12:32:26;;;;;;;8.40;4.32;;;8.80;99.90;;;;;;5065520;28;20063;-62
2021/03/05 12:34:52;;;;;;;9.55;4.50;;;9.00;99.90;;;;;;5073744;28;20048;-62
2021/03/05 12:37:18;;;;;;;7.40;4.47;;;8.90;99.90;;;;;;5072448;28;20060;-62
2021/03/05 12:39:44;;;;;;;7.32;4.72;;;8.60;99.90;;;;;;5074890;28;21005;-61
2021/03/05 12:42:10;;;;;;;9.30;4.53;;;8.80;99.90;;;;;;5071017;28;20032;-60
2021/03/05 12:44:35;;;;;;;8.60;4.72;;;8.90;99.90;;;;;;5071581;28;20032;-61
2021/03/05 12:47:01;;;;;;;7.07;4.07;;;8.70;99.90;;;;;;5074712;28;20123;-61
2021/03/05 12:49:27;;;;;;;8.05;4.35;;;8.50;99.90;;;;;;5072869;28;20082;-61
2021/03/05 12:51:52;;;;;;;8.82;4.65;;;8.40;99.90;;;;;;5076013;28;20024;-61
2021/03/05 12:54:18;;;;;;;7.68;4.07;;;8.20;99.90;;;;;;5072743;28;20082;-61
2021/03/05 12:56:43;;;;;;;12.13;5.20;;;8.30;99.90;;;;;;5072872;28;20104;-61
2021/03/05 12:59:09;;;;;;;8.07;4.40;;;8.30;99.90;;;;;;5078334;28;20032;-61
2021/03/05 13:01:35;;;;;;;8.25;5.13;;;8.40;99.90;;;;;;5082625;28;20036;-61
2021/03/05 13:04:00;;;;;;;7.57;4.63;;;8.40;99.90;;;;;;5078172;28;20475;-62